In Rescue
 
Open Full Screen Window  High Contrast Mode
Wind Gusting 14 knots
09
October 25, 2021 12:17 PM PDT
Weather Information
Wind Direction
  160 °
Wind Speed
  09 kt (10 mph)
Wind Gust
  14 kt (16 mph)
Variable Wind
130°
200°
Altimeter
29.91 in
Visibility
10 SM
Temperature
18° C
64° F
Dewpoint
11° C
52° F
Humidity
64%
1hr Rain Fall
00.00 in.
24hr Rain Fall
00.00 in.
Sky Condition
Overcast @ 3,900 ft
Scattered @ 2,600 ft
Scattered @ 2,000 ft
VFR

METAR KSBD 251917Z AUTO 16009G14KT 130V200 10SM SCT020 SCT026 OVC039 18/11 A2991 RMK AO2 T01840112

FAA Disclaimer: The data displayed is for advisory purposes only and is not to be used for flight planning or operations.